IAE141 UIII-UIKB
Flight info
| Callsign | IAE141 |
|---|---|
| Flight time | 2h 35m |
| Altitude | 19000 |
| Route | K0445F190 KA W225 GARAK W269 UTANA |
| Aircraft | AN24/M-I/L |
Departure
| Time | 2026-04-26 10:26 |
|---|---|
| Airport | Irkutsk International Airport (UIII) |
Arrival
| Time | 2026-04-26 13:01 |
|---|---|
| Airport | Bodaybo Airport (UIKB) |
| Time | Latitude | Longitude | Altitude | Speed | Heading |
|---|---|---|---|---|---|
| 2026-04-26 09:27 | 52.26993 | 104.35722 | 1605 ft | 0 kts | 230° |
| 2026-04-26 10:13 | 52.26971 | 104.35671 | 1606 ft | 9 kts | 253° |
| 2026-04-26 10:13 | 52.27014 | 104.35577 | 1600 ft | 12 kts | 320° |
| 2026-04-26 10:13 | 52.27087 | 104.35479 | 1592 ft | 15 kts | 332° |
| 2026-04-26 10:14 | 52.27148 | 104.35560 | 1589 ft | 14 kts | 89° |
| 2026-04-26 10:14 | 52.27151 | 104.35719 | 1591 ft | 17 kts | 86° |
| 2026-04-26 10:14 | 52.27174 | 104.35873 | 1597 ft | 11 kts | 83° |
| 2026-04-26 10:14 | 52.27181 | 104.36047 | 1598 ft | 16 kts | 85° |
| 2026-04-26 10:15 | 52.27186 | 104.36223 | 1596 ft | 14 kts | 86° |
| 2026-04-26 10:15 | 52.27160 | 104.36380 | 1595 ft | 13 kts | 111° |
| 2026-04-26 10:15 | 52.27123 | 104.36544 | 1599 ft | 16 kts | 110° |
| 2026-04-26 10:15 | 52.27079 | 104.36736 | 1607 ft | 17 kts | 109° |
| 2026-04-26 10:16 | 52.27044 | 104.36890 | 1611 ft | 12 kts | 110° |
| 2026-04-26 10:16 | 52.27006 | 104.37057 | 1612 ft | 17 kts | 111° |
| 2026-04-26 10:16 | 52.27000 | 104.37238 | 1610 ft | 16 kts | 82° |
| 2026-04-26 10:16 | 52.26965 | 104.37425 | 1611 ft | 26 kts | 112° |
| 2026-04-26 10:17 | 52.26898 | 104.37675 | 1617 ft | 20 kts | 114° |
| 2026-04-26 10:17 | 52.26843 | 104.37883 | 1621 ft | 19 kts | 114° |
| 2026-04-26 10:17 | 52.26794 | 104.38061 | 1623 ft | 18 kts | 112° |
| 2026-04-26 10:17 | 52.26734 | 104.38293 | 1628 ft | 20 kts | 112° |
| 2026-04-26 10:18 | 52.26672 | 104.38523 | 1635 ft | 23 kts | 113° |
| 2026-04-26 10:18 | 52.26603 | 104.38781 | 1643 ft | 23 kts | 109° |
| 2026-04-26 10:18 | 52.26549 | 104.38987 | 1650 ft | 16 kts | 114° |
| 2026-04-26 10:18 | 52.26509 | 104.39136 | 1653 ft | 17 kts | 113° |
| 2026-04-26 10:19 | 52.26452 | 104.39352 | 1656 ft | 18 kts | 114° |
| 2026-04-26 10:19 | 52.26404 | 104.39532 | 1658 ft | 21 kts | 114° |
| 2026-04-26 10:19 | 52.26330 | 104.39811 | 1657 ft | 29 kts | 113° |
| 2026-04-26 10:19 | 52.26251 | 104.40107 | 1654 ft | 27 kts | 113° |
| 2026-04-26 10:20 | 52.26179 | 104.40379 | 1654 ft | 24 kts | 111° |
| 2026-04-26 10:20 | 52.26134 | 104.40546 | 1656 ft | 25 kts | 113° |
| 2026-04-26 10:20 | 52.26051 | 104.40854 | 1664 ft | 18 kts | 114° |
| 2026-04-26 10:20 | 52.25994 | 104.41081 | 1669 ft | 20 kts | 97° |
| 2026-04-26 10:21 | 52.26069 | 104.41210 | 1672 ft | 14 kts | 24° |
| 2026-04-26 10:21 | 52.26102 | 104.41234 | 1672 ft | 0 kts | 23° |
| 2026-04-26 10:23 | 52.26154 | 104.41271 | 1672 ft | 10 kts | 23° |
| 2026-04-26 10:23 | 52.26227 | 104.41277 | 1670 ft | 13 kts | 314° |
| 2026-04-26 10:23 | 52.26268 | 104.41141 | 1667 ft | 12 kts | 293° |
| 2026-04-26 10:23 | 52.26275 | 104.41118 | 1666 ft | 0 kts | 293° |
| 2026-04-26 10:25 | 52.26392 | 104.40682 | 1657 ft | 81 kts | 294° |
| 2026-04-26 10:25 | 52.26685 | 104.39559 | 1645 ft | 128 kts | 297° |
| 2026-04-26 10:25 | 52.27093 | 104.38086 | 1812 ft | 153 kts | 297° |
| 2026-04-26 10:25 | 52.27549 | 104.36526 | 2275 ft | 157 kts | 297° |
| 2026-04-26 10:26 | 52.28246 | 104.35157 | 2679 ft | 162 kts | 326° |
| 2026-04-26 10:26 | 52.29310 | 104.34574 | 3196 ft | 161 kts | 358° |
| 2026-04-26 10:26 | 52.30356 | 104.34996 | 3717 ft | 159 kts | 25° |
| 2026-04-26 10:26 | 52.31266 | 104.36108 | 4030 ft | 169 kts | 34° |
| 2026-04-26 10:27 | 52.32152 | 104.37373 | 4392 ft | 172 kts | 37° |
| 2026-04-26 10:27 | 52.33032 | 104.38734 | 4724 ft | 174 kts | 39° |
| 2026-04-26 10:27 | 52.33894 | 104.40102 | 4989 ft | 177 kts | 39° |
| 2026-04-26 10:27 | 52.34796 | 104.41523 | 5197 ft | 181 kts | 38° |
| 2026-04-26 10:28 | 52.35686 | 104.42942 | 5548 ft | 178 kts | 38° |
| 2026-04-26 10:28 | 52.36562 | 104.44368 | 5816 ft | 180 kts | 39° |
| 2026-04-26 10:28 | 52.37449 | 104.45815 | 6078 ft | 180 kts | 39° |
| 2026-04-26 10:28 | 52.38323 | 104.47266 | 6433 ft | 177 kts | 39° |
| 2026-04-26 10:29 | 52.39201 | 104.48661 | 6700 ft | 177 kts | 37° |
| 2026-04-26 10:29 | 52.40075 | 104.50084 | 6961 ft | 179 kts | 39° |
| 2026-04-26 10:29 | 52.40935 | 104.51539 | 7264 ft | 178 kts | 39° |
| 2026-04-26 10:29 | 52.41781 | 104.53014 | 7556 ft | 178 kts | 40° |
| 2026-04-26 10:30 | 52.42657 | 104.54468 | 7816 ft | 179 kts | 37° |
| 2026-04-26 10:30 | 52.43560 | 104.55843 | 8086 ft | 177 kts | 35° |
| 2026-04-26 10:30 | 52.44446 | 104.57215 | 8366 ft | 177 kts | 36° |
| 2026-04-26 10:30 | 52.45334 | 104.58627 | 8645 ft | 176 kts | 36° |
| 2026-04-26 10:31 | 52.46172 | 104.60033 | 8952 ft | 173 kts | 38° |
| 2026-04-26 10:31 | 52.46993 | 104.61518 | 9175 ft | 177 kts | 38° |
| 2026-04-26 10:31 | 52.47834 | 104.62978 | 9379 ft | 178 kts | 36° |
| 2026-04-26 10:31 | 52.48712 | 104.64373 | 9701 ft | 173 kts | 33° |
| 2026-04-26 10:32 | 52.49586 | 104.65719 | 9964 ft | 173 kts | 35° |
| 2026-04-26 10:32 | 52.50420 | 104.67125 | 10212 ft | 174 kts | 38° |
| 2026-04-26 10:32 | 52.51229 | 104.68621 | 10491 ft | 173 kts | 39° |
| 2026-04-26 10:32 | 52.52005 | 104.70119 | 10719 ft | 173 kts | 39° |
| 2026-04-26 10:33 | 52.52808 | 104.71587 | 10939 ft | 173 kts | 38° |
| 2026-04-26 10:33 | 52.53630 | 104.73038 | 11146 ft | 174 kts | 37° |
| 2026-04-26 10:33 | 52.54457 | 104.74438 | 11368 ft | 173 kts | 36° |
| 2026-04-26 10:33 | 52.55294 | 104.75868 | 11600 ft | 172 kts | 36° |
| 2026-04-26 10:34 | 52.56126 | 104.77264 | 11835 ft | 170 kts | 34° |
| 2026-04-26 10:34 | 52.56967 | 104.78600 | 12066 ft | 169 kts | 34° |
| 2026-04-26 10:34 | 52.57799 | 104.79927 | 12275 ft | 169 kts | 34° |
| 2026-04-26 10:34 | 52.58637 | 104.81265 | 12487 ft | 168 kts | 34° |
| 2026-04-26 10:35 | 52.59489 | 104.82577 | 12708 ft | 166 kts | 31° |
| 2026-04-26 10:35 | 52.60360 | 104.83820 | 12917 ft | 165 kts | 31° |
| 2026-04-26 10:35 | 52.61221 | 104.85059 | 13108 ft | 166 kts | 31° |
| 2026-04-26 10:35 | 52.62082 | 104.86299 | 13299 ft | 166 kts | 31° |
| 2026-04-26 10:36 | 52.62952 | 104.87553 | 13490 ft | 165 kts | 31° |
| 2026-04-26 10:36 | 52.63806 | 104.88783 | 13680 ft | 165 kts | 31° |
| 2026-04-26 10:36 | 52.64678 | 104.90007 | 13874 ft | 164 kts | 30° |
| 2026-04-26 10:36 | 52.65552 | 104.91221 | 14037 ft | 165 kts | 30° |
| 2026-04-26 10:37 | 52.66430 | 104.92444 | 14204 ft | 165 kts | 30° |
| 2026-04-26 10:37 | 52.67302 | 104.93648 | 14368 ft | 165 kts | 28° |
| 2026-04-26 10:37 | 52.68201 | 104.94817 | 14547 ft | 164 kts | 28° |
| 2026-04-26 10:37 | 52.69100 | 104.95983 | 14716 ft | 164 kts | 28° |
| 2026-04-26 10:38 | 52.69981 | 104.97131 | 14873 ft | 164 kts | 28° |
| 2026-04-26 10:38 | 52.70889 | 104.98312 | 15032 ft | 164 kts | 28° |
| 2026-04-26 10:38 | 52.71779 | 104.99470 | 15186 ft | 164 kts | 28° |
| 2026-04-26 10:38 | 52.72667 | 105.00627 | 15346 ft | 164 kts | 28° |
| 2026-04-26 10:39 | 52.73573 | 105.01808 | 15509 ft | 164 kts | 28° |
| 2026-04-26 10:39 | 52.74456 | 105.02961 | 15657 ft | 164 kts | 28° |
| 2026-04-26 10:39 | 52.75348 | 105.04125 | 15796 ft | 164 kts | 28° |
| 2026-04-26 10:39 | 52.76245 | 105.05295 | 15923 ft | 165 kts | 28° |
| 2026-04-26 10:40 | 52.77154 | 105.06478 | 16061 ft | 165 kts | 28° |
| 2026-04-26 10:40 | 52.78059 | 105.07626 | 16204 ft | 164 kts | 26° |
| 2026-04-26 10:40 | 52.78976 | 105.08736 | 16338 ft | 164 kts | 26° |
| 2026-04-26 10:40 | 52.79897 | 105.09856 | 16471 ft | 164 kts | 27° |
| 2026-04-26 10:41 | 52.80814 | 105.10972 | 16602 ft | 164 kts | 26° |
| 2026-04-26 10:41 | 52.81733 | 105.12089 | 16734 ft | 164 kts | 27° |
| 2026-04-26 10:41 | 52.82657 | 105.13214 | 16859 ft | 164 kts | 26° |
| 2026-04-26 10:41 | 52.83567 | 105.14324 | 16990 ft | 164 kts | 26° |
| 2026-04-26 10:42 | 52.84483 | 105.15440 | 17116 ft | 163 kts | 26° |
| 2026-04-26 10:42 | 52.85394 | 105.16549 | 17239 ft | 163 kts | 26° |
| 2026-04-26 10:42 | 52.86312 | 105.17668 | 17364 ft | 163 kts | 26° |
| 2026-04-26 10:42 | 52.87212 | 105.18767 | 17479 ft | 163 kts | 26° |
| 2026-04-26 10:43 | 52.88130 | 105.19888 | 17590 ft | 163 kts | 26° |
| 2026-04-26 10:43 | 52.89050 | 105.21012 | 17685 ft | 165 kts | 26° |
| 2026-04-26 10:43 | 52.89964 | 105.22128 | 17782 ft | 165 kts | 26° |
| 2026-04-26 10:43 | 52.90897 | 105.23269 | 17877 ft | 166 kts | 27° |
| 2026-04-26 10:44 | 52.91819 | 105.24400 | 17986 ft | 166 kts | 27° |
| 2026-04-26 10:44 | 52.92740 | 105.25526 | 18085 ft | 166 kts | 26° |
| 2026-04-26 10:44 | 52.93676 | 105.26672 | 18180 ft | 166 kts | 26° |
| 2026-04-26 10:44 | 52.94599 | 105.27805 | 18281 ft | 166 kts | 26° |
| 2026-04-26 10:45 | 52.95528 | 105.28945 | 18379 ft | 166 kts | 26° |
| 2026-04-26 10:45 | 52.96446 | 105.30072 | 18472 ft | 166 kts | 27° |
| 2026-04-26 10:45 | 52.97382 | 105.31222 | 18566 ft | 166 kts | 26° |
| 2026-04-26 10:45 | 52.98305 | 105.32355 | 18666 ft | 166 kts | 27° |
| 2026-04-26 10:46 | 52.99227 | 105.33492 | 18766 ft | 165 kts | 27° |
| 2026-04-26 10:46 | 53.00144 | 105.34620 | 18862 ft | 165 kts | 26° |
| 2026-04-26 10:46 | 53.01068 | 105.35755 | 18943 ft | 165 kts | 26° |
| 2026-04-26 10:46 | 53.01986 | 105.36887 | 19018 ft | 166 kts | 26° |
| 2026-04-26 10:47 | 53.02924 | 105.38040 | 19099 ft | 166 kts | 26° |
| 2026-04-26 10:47 | 53.03850 | 105.39185 | 19179 ft | 166 kts | 26° |
| 2026-04-26 10:47 | 53.04778 | 105.40329 | 19256 ft | 166 kts | 26° |
| 2026-04-26 10:47 | 53.05705 | 105.41473 | 19291 ft | 169 kts | 26° |
| 2026-04-26 10:48 | 53.06656 | 105.42645 | 19307 ft | 171 kts | 26° |
| 2026-04-26 10:48 | 53.07623 | 105.43840 | 19316 ft | 173 kts | 27° |
| 2026-04-26 10:48 | 53.08590 | 105.45031 | 19297 ft | 176 kts | 27° |
| 2026-04-26 10:48 | 53.09587 | 105.46262 | 19298 ft | 178 kts | 27° |
| 2026-04-26 10:49 | 53.10580 | 105.47490 | 19302 ft | 180 kts | 27° |
| 2026-04-26 10:49 | 53.11595 | 105.48747 | 19303 ft | 182 kts | 27° |
| 2026-04-26 10:49 | 53.12626 | 105.50020 | 19296 ft | 185 kts | 27° |
| 2026-04-26 10:49 | 53.13656 | 105.51297 | 19290 ft | 186 kts | 27° |
| 2026-04-26 10:50 | 53.14693 | 105.52582 | 19296 ft | 187 kts | 27° |
| 2026-04-26 10:50 | 53.15396 | 105.53455 | 19296 ft | 188 kts | 27° |
| 2026-04-26 10:50 | 53.16804 | 105.55202 | 19290 ft | 190 kts | 27° |
| 2026-04-26 10:50 | 53.17850 | 105.56503 | 19295 ft | 190 kts | 27° |
| 2026-04-26 10:51 | 53.18915 | 105.57825 | 19277 ft | 192 kts | 27° |
| 2026-04-26 10:51 | 53.21061 | 105.60499 | 19287 ft | 192 kts | 27° |
| 2026-04-26 10:51 | 53.22126 | 105.61827 | 19300 ft | 192 kts | 27° |
| 2026-04-26 10:52 | 53.23206 | 105.63172 | 19275 ft | 194 kts | 28° |
| 2026-04-26 10:52 | 53.24281 | 105.64516 | 19298 ft | 193 kts | 28° |
| 2026-04-26 10:52 | 53.25354 | 105.65856 | 19297 ft | 193 kts | 28° |
| 2026-04-26 10:52 | 53.26430 | 105.67199 | 19282 ft | 194 kts | 28° |
| 2026-04-26 10:53 | 53.27499 | 105.68539 | 19320 ft | 193 kts | 28° |
| 2026-04-26 10:53 | 53.28569 | 105.69879 | 19321 ft | 193 kts | 28° |
| 2026-04-26 10:53 | 53.29650 | 105.71231 | 19291 ft | 195 kts | 28° |
| 2026-04-26 10:54 | 53.31749 | 105.74151 | 19297 ft | 197 kts | 32° |
| 2026-04-26 10:54 | 53.32772 | 105.75634 | 19301 ft | 196 kts | 32° |
| 2026-04-26 10:54 | 53.33795 | 105.77115 | 19294 ft | 197 kts | 32° |
| 2026-04-26 10:54 | 53.34827 | 105.78611 | 19299 ft | 196 kts | 32° |
| 2026-04-26 10:55 | 53.35867 | 105.80120 | 19295 ft | 196 kts | 32° |
| 2026-04-26 10:55 | 53.36890 | 105.81605 | 19296 ft | 197 kts | 32° |
| 2026-04-26 10:55 | 53.37918 | 105.83102 | 19321 ft | 195 kts | 32° |
| 2026-04-26 10:55 | 53.38947 | 105.84596 | 19295 ft | 196 kts | 32° |
| 2026-04-26 10:56 | 53.39978 | 105.86096 | 19307 ft | 196 kts | 32° |
| 2026-04-26 10:56 | 53.40998 | 105.87585 | 19316 ft | 195 kts | 32° |
| 2026-04-26 10:56 | 53.42033 | 105.89090 | 19285 ft | 197 kts | 32° |
| 2026-04-26 10:56 | 53.43054 | 105.90581 | 19313 ft | 195 kts | 32° |
| 2026-04-26 10:57 | 53.44075 | 105.92072 | 19313 ft | 195 kts | 32° |
| 2026-04-26 10:57 | 53.45097 | 105.93562 | 19325 ft | 195 kts | 33° |
| 2026-04-26 10:57 | 53.46116 | 105.95047 | 19305 ft | 196 kts | 32° |
| 2026-04-26 10:57 | 53.47147 | 105.96553 | 19305 ft | 196 kts | 32° |
| 2026-04-26 10:58 | 53.48163 | 105.98040 | 19324 ft | 195 kts | 32° |
| 2026-04-26 10:58 | 53.49191 | 105.99541 | 19301 ft | 196 kts | 32° |
| 2026-04-26 10:58 | 53.50214 | 106.01041 | 19320 ft | 195 kts | 32° |
| 2026-04-26 10:58 | 53.51235 | 106.02539 | 19324 ft | 195 kts | 32° |
| 2026-04-26 10:59 | 53.52258 | 106.04036 | 19303 ft | 196 kts | 33° |
| 2026-04-26 10:59 | 53.53286 | 106.05546 | 19301 ft | 196 kts | 33° |
| 2026-04-26 10:59 | 53.54306 | 106.07042 | 19311 ft | 196 kts | 33° |
| 2026-04-26 10:59 | 53.55329 | 106.08543 | 19292 ft | 197 kts | 33° |
| 2026-04-26 11:00 | 53.56356 | 106.10051 | 19309 ft | 196 kts | 33° |
| 2026-04-26 11:00 | 53.57379 | 106.11557 | 19297 ft | 196 kts | 32° |
| 2026-04-26 11:00 | 53.58409 | 106.13071 | 19289 ft | 196 kts | 33° |
| 2026-04-26 11:00 | 53.59433 | 106.14582 | 19298 ft | 195 kts | 33° |
| 2026-04-26 11:01 | 53.60451 | 106.16082 | 19288 ft | 196 kts | 33° |
| 2026-04-26 11:01 | 53.61463 | 106.17573 | 19310 ft | 195 kts | 32° |
| 2026-04-26 11:01 | 53.62492 | 106.19093 | 19291 ft | 195 kts | 33° |
| 2026-04-26 11:01 | 53.63504 | 106.20587 | 19293 ft | 195 kts | 33° |
| 2026-04-26 11:02 | 53.64531 | 106.22103 | 19290 ft | 195 kts | 33° |
| 2026-04-26 11:02 | 53.65544 | 106.23604 | 19298 ft | 195 kts | 32° |
| 2026-04-26 11:02 | 53.66563 | 106.25110 | 19283 ft | 195 kts | 32° |
| 2026-04-26 11:02 | 53.67580 | 106.26617 | 19303 ft | 195 kts | 33° |
| 2026-04-26 11:03 | 53.68596 | 106.28123 | 19293 ft | 195 kts | 33° |
| 2026-04-26 11:03 | 53.69610 | 106.29624 | 19274 ft | 196 kts | 33° |
| 2026-04-26 11:03 | 53.70624 | 106.31131 | 19301 ft | 195 kts | 33° |
| 2026-04-26 11:03 | 53.71646 | 106.32649 | 19299 ft | 194 kts | 33° |
| 2026-04-26 11:04 | 53.72657 | 106.34150 | 19301 ft | 194 kts | 33° |
| 2026-04-26 11:04 | 53.73672 | 106.35661 | 19301 ft | 194 kts | 33° |
| 2026-04-26 11:04 | 53.74680 | 106.37158 | 19290 ft | 195 kts | 33° |
| 2026-04-26 11:04 | 53.75692 | 106.38667 | 19315 ft | 194 kts | 33° |
| 2026-04-26 11:05 | 53.76702 | 106.40171 | 19295 ft | 194 kts | 33° |
| 2026-04-26 11:05 | 53.77714 | 106.41680 | 19303 ft | 194 kts | 33° |
| 2026-04-26 11:05 | 53.78723 | 106.43184 | 19302 ft | 194 kts | 33° |
| 2026-04-26 11:05 | 53.79734 | 106.44694 | 19290 ft | 195 kts | 33° |
| 2026-04-26 11:06 | 53.80750 | 106.46212 | 19311 ft | 194 kts | 33° |
| 2026-04-26 11:06 | 53.81758 | 106.47717 | 19299 ft | 194 kts | 33° |
| 2026-04-26 11:06 | 53.82758 | 106.49213 | 19294 ft | 194 kts | 33° |
| 2026-04-26 11:06 | 53.83763 | 106.50720 | 19311 ft | 193 kts | 33° |
| 2026-04-26 11:07 | 53.84769 | 106.52226 | 19296 ft | 194 kts | 33° |
| 2026-04-26 11:07 | 53.85773 | 106.53732 | 19301 ft | 193 kts | 33° |
| 2026-04-26 11:07 | 53.86788 | 106.55254 | 19299 ft | 193 kts | 33° |
| 2026-04-26 11:07 | 53.87792 | 106.56758 | 19282 ft | 194 kts | 33° |
| 2026-04-26 11:08 | 53.88800 | 106.58276 | 19303 ft | 193 kts | 33° |
| 2026-04-26 11:08 | 53.89797 | 106.59775 | 19301 ft | 193 kts | 33° |
| 2026-04-26 11:08 | 53.90802 | 106.61283 | 19286 ft | 193 kts | 33° |
| 2026-04-26 11:08 | 53.91802 | 106.62790 | 19302 ft | 192 kts | 33° |
| 2026-04-26 11:09 | 53.92794 | 106.64283 | 19296 ft | 193 kts | 33° |
| 2026-04-26 11:09 | 53.93794 | 106.65791 | 19305 ft | 192 kts | 34° |
| 2026-04-26 11:09 | 53.94796 | 106.67300 | 19295 ft | 193 kts | 34° |
| 2026-04-26 11:09 | 53.95799 | 106.68813 | 19294 ft | 193 kts | 34° |
| 2026-04-26 11:10 | 53.96791 | 106.70312 | 19305 ft | 192 kts | 34° |
| 2026-04-26 11:10 | 53.97795 | 106.71828 | 19291 ft | 193 kts | 34° |
| 2026-04-26 11:10 | 53.98798 | 106.73344 | 19308 ft | 192 kts | 34° |
| 2026-04-26 11:10 | 53.99796 | 106.74853 | 19289 ft | 193 kts | 34° |
| 2026-04-26 11:11 | 54.00790 | 106.76357 | 19293 ft | 193 kts | 34° |
| 2026-04-26 11:11 | 54.01788 | 106.77869 | 19305 ft | 192 kts | 34° |
| 2026-04-26 11:11 | 54.02778 | 106.79369 | 19293 ft | 193 kts | 34° |
| 2026-04-26 11:11 | 54.03778 | 106.80888 | 19307 ft | 192 kts | 34° |
| 2026-04-26 11:12 | 54.04771 | 106.82394 | 19298 ft | 192 kts | 34° |
| 2026-04-26 11:12 | 54.05769 | 106.83910 | 19290 ft | 193 kts | 34° |
| 2026-04-26 11:12 | 54.06771 | 106.85436 | 19307 ft | 192 kts | 34° |
| 2026-04-26 11:12 | 54.07761 | 106.86940 | 19291 ft | 192 kts | 34° |
| 2026-04-26 11:13 | 54.08746 | 106.88441 | 19314 ft | 191 kts | 34° |
| 2026-04-26 11:13 | 54.09746 | 106.89964 | 19294 ft | 192 kts | 34° |
| 2026-04-26 11:13 | 54.10733 | 106.91466 | 19299 ft | 192 kts | 35° |
| 2026-04-26 11:13 | 54.11734 | 106.92994 | 19312 ft | 192 kts | 35° |
| 2026-04-26 11:14 | 54.12738 | 106.94524 | 19287 ft | 194 kts | 35° |
| 2026-04-26 11:14 | 54.13741 | 106.96054 | 19306 ft | 194 kts | 34° |
| 2026-04-26 11:14 | 54.14751 | 106.97596 | 19298 ft | 195 kts | 35° |
| 2026-04-26 11:14 | 54.15758 | 106.99136 | 19274 ft | 196 kts | 34° |
| 2026-04-26 11:15 | 54.16768 | 107.00680 | 19290 ft | 196 kts | 34° |
| 2026-04-26 11:15 | 54.17790 | 107.02245 | 19279 ft | 196 kts | 35° |
| 2026-04-26 11:15 | 54.18800 | 107.03794 | 19298 ft | 196 kts | 35° |
| 2026-04-26 11:15 | 54.19810 | 107.05342 | 19291 ft | 196 kts | 35° |
| 2026-04-26 11:16 | 54.20813 | 107.06883 | 19297 ft | 196 kts | 35° |
| 2026-04-26 11:16 | 54.21831 | 107.08448 | 19319 ft | 195 kts | 35° |
| 2026-04-26 11:16 | 54.22834 | 107.09987 | 19305 ft | 196 kts | 35° |
| 2026-04-26 11:16 | 54.23848 | 107.11547 | 19303 ft | 196 kts | 35° |
| 2026-04-26 11:17 | 54.24867 | 107.13112 | 19295 ft | 197 kts | 35° |
| 2026-04-26 11:17 | 54.25878 | 107.14669 | 19292 ft | 197 kts | 35° |
| 2026-04-26 11:17 | 54.26892 | 107.16232 | 19304 ft | 196 kts | 35° |
| 2026-04-26 11:17 | 54.27899 | 107.17783 | 19290 ft | 197 kts | 36° |
| 2026-04-26 11:18 | 54.28917 | 107.19356 | 19305 ft | 196 kts | 35° |
| 2026-04-26 11:18 | 54.29940 | 107.20933 | 19285 ft | 197 kts | 36° |
| 2026-04-26 11:18 | 54.30950 | 107.22495 | 19283 ft | 197 kts | 35° |
| 2026-04-26 11:18 | 54.31964 | 107.24062 | 19300 ft | 196 kts | 36° |
| 2026-04-26 11:19 | 54.32970 | 107.25618 | 19281 ft | 197 kts | 36° |
| 2026-04-26 11:19 | 54.33986 | 107.27192 | 19303 ft | 196 kts | 36° |
| 2026-04-26 11:19 | 54.34997 | 107.28758 | 19301 ft | 196 kts | 36° |
| 2026-04-26 11:19 | 54.35999 | 107.30312 | 19294 ft | 196 kts | 36° |
| 2026-04-26 11:20 | 54.37013 | 107.31883 | 19299 ft | 196 kts | 36° |
| 2026-04-26 11:20 | 54.37694 | 107.32941 | 19286 ft | 197 kts | 36° |
| 2026-04-26 11:20 | 54.39033 | 107.35021 | 19306 ft | 196 kts | 36° |
| 2026-04-26 11:20 | 54.40044 | 107.36593 | 19294 ft | 196 kts | 36° |
| 2026-04-26 11:21 | 54.41046 | 107.38153 | 19308 ft | 196 kts | 36° |
| 2026-04-26 11:21 | 54.42057 | 107.39728 | 19300 ft | 196 kts | 36° |
| 2026-04-26 11:21 | 54.43063 | 107.41296 | 19307 ft | 196 kts | 36° |
| 2026-04-26 11:21 | 54.44066 | 107.42858 | 19308 ft | 196 kts | 36° |
| 2026-04-26 11:22 | 54.45081 | 107.44441 | 19309 ft | 196 kts | 36° |
| 2026-04-26 11:22 | 54.46070 | 107.45985 | 19318 ft | 195 kts | 37° |
| 2026-04-26 11:22 | 54.47086 | 107.47572 | 19296 ft | 196 kts | 36° |
| 2026-04-26 11:22 | 54.48089 | 107.49140 | 19318 ft | 195 kts | 36° |
| 2026-04-26 11:23 | 54.49087 | 107.50700 | 19314 ft | 196 kts | 37° |
| 2026-04-26 11:23 | 54.50097 | 107.52283 | 19303 ft | 196 kts | 37° |
| 2026-04-26 11:23 | 54.51093 | 107.53844 | 19319 ft | 195 kts | 37° |
| 2026-04-26 11:23 | 54.52100 | 107.55421 | 19299 ft | 196 kts | 37° |
| 2026-04-26 11:24 | 54.53103 | 107.56997 | 19310 ft | 196 kts | 37° |
| 2026-04-26 11:24 | 54.54109 | 107.58575 | 19308 ft | 196 kts | 37° |
| 2026-04-26 11:24 | 54.55121 | 107.60166 | 19293 ft | 196 kts | 37° |
| 2026-04-26 11:24 | 54.56123 | 107.61741 | 19316 ft | 195 kts | 37° |
| 2026-04-26 11:25 | 54.57126 | 107.63321 | 19302 ft | 196 kts | 37° |
| 2026-04-26 11:25 | 54.58131 | 107.64901 | 19304 ft | 196 kts | 37° |
| 2026-04-26 11:25 | 54.59130 | 107.66477 | 19315 ft | 196 kts | 38° |
| 2026-04-26 11:25 | 54.60140 | 107.68068 | 19289 ft | 197 kts | 38° |
| 2026-04-26 11:26 | 54.61137 | 107.69642 | 19302 ft | 196 kts | 38° |
| 2026-04-26 11:26 | 54.62141 | 107.71230 | 19309 ft | 196 kts | 38° |
| 2026-04-26 11:26 | 54.63143 | 107.72810 | 19290 ft | 197 kts | 38° |
| 2026-04-26 11:26 | 54.64156 | 107.74414 | 19306 ft | 196 kts | 38° |
| 2026-04-26 11:27 | 54.65157 | 107.75996 | 19284 ft | 197 kts | 38° |
| 2026-04-26 11:27 | 54.66164 | 107.77589 | 19295 ft | 196 kts | 38° |
| 2026-04-26 11:27 | 54.67164 | 107.79174 | 19302 ft | 196 kts | 38° |
| 2026-04-26 11:27 | 54.68174 | 107.80776 | 19286 ft | 197 kts | 38° |
| 2026-04-26 11:28 | 54.69179 | 107.82372 | 19313 ft | 196 kts | 38° |
| 2026-04-26 11:28 | 54.70169 | 107.83943 | 19299 ft | 196 kts | 38° |
| 2026-04-26 11:28 | 54.71180 | 107.85551 | 19307 ft | 196 kts | 38° |
| 2026-04-26 11:28 | 54.72170 | 107.87125 | 19319 ft | 196 kts | 38° |
| 2026-04-26 11:29 | 54.73172 | 107.88718 | 19317 ft | 196 kts | 39° |
| 2026-04-26 11:29 | 54.74173 | 107.90311 | 19307 ft | 196 kts | 38° |
| 2026-04-26 11:29 | 54.75184 | 107.91921 | 19331 ft | 195 kts | 38° |
| 2026-04-26 11:29 | 54.76175 | 107.93502 | 19307 ft | 196 kts | 38° |
| 2026-04-26 11:30 | 54.77185 | 107.95112 | 19305 ft | 196 kts | 38° |
| 2026-04-26 11:30 | 54.77843 | 107.96163 | 19314 ft | 196 kts | 38° |
| 2026-04-26 11:30 | 54.79179 | 107.98296 | 19284 ft | 197 kts | 38° |
| 2026-04-26 11:30 | 54.80183 | 107.99904 | 19296 ft | 196 kts | 39° |
| 2026-04-26 11:31 | 54.81187 | 108.01511 | 19289 ft | 197 kts | 39° |
| 2026-04-26 11:31 | 54.82195 | 108.03124 | 19286 ft | 196 kts | 39° |
| 2026-04-26 11:31 | 54.83188 | 108.04717 | 19304 ft | 196 kts | 39° |
| 2026-04-26 11:31 | 54.84188 | 108.06320 | 19289 ft | 196 kts | 39° |
| 2026-04-26 11:32 | 54.85179 | 108.07911 | 19306 ft | 195 kts | 39° |
| 2026-04-26 11:32 | 54.86176 | 108.09511 | 19299 ft | 196 kts | 39° |
| 2026-04-26 11:32 | 54.87175 | 108.11117 | 19287 ft | 196 kts | 39° |
| 2026-04-26 11:32 | 54.88169 | 108.12717 | 19310 ft | 195 kts | 39° |
| 2026-04-26 11:33 | 54.89165 | 108.14319 | 19299 ft | 196 kts | 39° |
| 2026-04-26 11:33 | 54.90169 | 108.15936 | 19308 ft | 196 kts | 39° |
| 2026-04-26 11:33 | 54.91165 | 108.17544 | 19314 ft | 196 kts | 39° |
| 2026-04-26 11:33 | 54.92155 | 108.19138 | 19299 ft | 196 kts | 39° |
| 2026-04-26 11:34 | 54.93151 | 108.20748 | 19308 ft | 196 kts | 40° |
| 2026-04-26 11:34 | 54.94158 | 108.22372 | 19297 ft | 196 kts | 39° |
| 2026-04-26 11:34 | 54.95153 | 108.23982 | 19320 ft | 195 kts | 39° |
| 2026-04-26 11:34 | 54.96149 | 108.25594 | 19303 ft | 196 kts | 39° |
| 2026-04-26 11:35 | 54.97142 | 108.27201 | 19306 ft | 196 kts | 39° |
| 2026-04-26 11:35 | 54.98132 | 108.28807 | 19302 ft | 196 kts | 39° |
| 2026-04-26 11:35 | 54.99126 | 108.30416 | 19286 ft | 196 kts | 39° |
| 2026-04-26 11:35 | 54.99795 | 108.31501 | 19297 ft | 195 kts | 39° |
| 2026-04-26 11:36 | 55.01116 | 108.33646 | 19273 ft | 196 kts | 39° |
| 2026-04-26 11:36 | 55.02103 | 108.35251 | 19284 ft | 196 kts | 40° |
| 2026-04-26 11:36 | 55.03095 | 108.36863 | 19293 ft | 195 kts | 40° |
| 2026-04-26 11:36 | 55.04097 | 108.38493 | 19278 ft | 196 kts | 40° |
| 2026-04-26 11:37 | 55.05082 | 108.40099 | 19289 ft | 195 kts | 40° |
| 2026-04-26 11:37 | 55.06078 | 108.41721 | 19284 ft | 195 kts | 40° |
| 2026-04-26 11:37 | 55.07060 | 108.43323 | 19275 ft | 196 kts | 40° |
| 2026-04-26 11:37 | 55.08053 | 108.44943 | 19296 ft | 194 kts | 40° |
| 2026-04-26 11:38 | 55.09038 | 108.46552 | 19274 ft | 196 kts | 40° |
| 2026-04-26 11:38 | 55.10036 | 108.48181 | 19267 ft | 196 kts | 40° |
| 2026-04-26 11:38 | 55.11028 | 108.49802 | 19288 ft | 196 kts | 40° |
| 2026-04-26 11:38 | 55.12017 | 108.51422 | 19266 ft | 197 kts | 40° |
| 2026-04-26 11:39 | 55.13023 | 108.53066 | 19249 ft | 198 kts | 40° |
| 2026-04-26 11:39 | 55.14027 | 108.54713 | 19278 ft | 198 kts | 40° |
| 2026-04-26 11:39 | 55.15023 | 108.56345 | 19259 ft | 199 kts | 40° |
| 2026-04-26 11:39 | 55.16035 | 108.58006 | 19250 ft | 199 kts | 41° |
| 2026-04-26 11:40 | 55.16744 | 108.59168 | 19236 ft | 200 kts | 41° |
| 2026-04-26 11:40 | 55.17767 | 108.60849 | 19240 ft | 200 kts | 41° |
| 2026-04-26 11:40 | 55.18778 | 108.62511 | 19219 ft | 200 kts | 41° |
| 2026-04-26 11:40 | 55.19784 | 108.64165 | 19221 ft | 200 kts | 41° |
| 2026-04-26 11:41 | 55.20799 | 108.65838 | 19200 ft | 201 kts | 42° |
| 2026-04-26 11:42 | 55.27944 | 108.77637 | 19186 ft | 202 kts | 43° |
| 2026-04-26 11:43 | 55.28950 | 108.79305 | 19221 ft | 201 kts | 42° |
| 2026-04-26 11:43 | 55.29970 | 108.80993 | 19214 ft | 202 kts | 43° |
| 2026-04-26 11:43 | 55.30993 | 108.82693 | 19213 ft | 202 kts | 43° |
| 2026-04-26 11:43 | 55.32011 | 108.84381 | 19240 ft | 201 kts | 42° |
| 2026-04-26 11:44 | 55.33010 | 108.86041 | 19243 ft | 201 kts | 43° |
| 2026-04-26 11:44 | 55.34022 | 108.87726 | 19275 ft | 200 kts | 43° |
| 2026-04-26 11:44 | 55.35029 | 108.89401 | 19262 ft | 201 kts | 43° |
| 2026-04-26 11:44 | 55.36041 | 108.91087 | 19273 ft | 201 kts | 43° |
| 2026-04-26 11:45 | 55.37057 | 108.92783 | 19289 ft | 200 kts | 43° |
| 2026-04-26 11:45 | 55.38064 | 108.94461 | 19299 ft | 200 kts | 43° |
| 2026-04-26 11:45 | 55.39068 | 108.96134 | 19311 ft | 201 kts | 43° |
| 2026-04-26 11:45 | 55.40090 | 108.97842 | 19304 ft | 201 kts | 43° |
| 2026-04-26 11:46 | 55.41106 | 108.99540 | 19316 ft | 201 kts | 43° |
| 2026-04-26 11:46 | 55.42105 | 109.01208 | 19336 ft | 200 kts | 43° |
| 2026-04-26 11:46 | 55.43113 | 109.02901 | 19318 ft | 201 kts | 43° |
| 2026-04-26 11:46 | 55.44137 | 109.04616 | 19320 ft | 201 kts | 43° |
| 2026-04-26 11:47 | 55.45147 | 109.06306 | 19341 ft | 201 kts | 43° |
| 2026-04-26 11:47 | 55.46155 | 109.07999 | 19323 ft | 202 kts | 43° |
| 2026-04-26 11:47 | 55.47181 | 109.09720 | 19305 ft | 202 kts | 43° |
| 2026-04-26 11:47 | 55.48183 | 109.11404 | 19337 ft | 201 kts | 43° |
| 2026-04-26 11:48 | 55.49194 | 109.13104 | 19339 ft | 201 kts | 43° |
| 2026-04-26 11:48 | 55.50201 | 109.14796 | 19363 ft | 200 kts | 43° |
| 2026-04-26 11:48 | 55.51214 | 109.16505 | 19371 ft | 200 kts | 43° |
| 2026-04-26 11:48 | 55.52219 | 109.18196 | 19358 ft | 201 kts | 43° |
| 2026-04-26 11:49 | 55.53226 | 109.19898 | 19365 ft | 201 kts | 43° |
| 2026-04-26 11:49 | 55.54232 | 109.21594 | 19357 ft | 201 kts | 43° |
| 2026-04-26 11:49 | 55.55254 | 109.23320 | 19386 ft | 201 kts | 44° |
| 2026-04-26 11:49 | 55.56256 | 109.25015 | 19371 ft | 201 kts | 43° |
| 2026-04-26 11:50 | 55.57269 | 109.26726 | 19379 ft | 202 kts | 44° |
| 2026-04-26 11:50 | 55.58272 | 109.28424 | 19360 ft | 202 kts | 44° |
| 2026-04-26 11:50 | 55.59293 | 109.30153 | 19375 ft | 201 kts | 44° |
| 2026-04-26 11:50 | 55.60296 | 109.31854 | 19372 ft | 202 kts | 44° |
| 2026-04-26 11:51 | 55.61300 | 109.33557 | 19378 ft | 202 kts | 43° |
| 2026-04-26 11:51 | 55.62323 | 109.35295 | 19354 ft | 203 kts | 43° |
| 2026-04-26 11:51 | 55.63337 | 109.37016 | 19342 ft | 203 kts | 44° |
| 2026-04-26 11:51 | 55.64347 | 109.38737 | 19390 ft | 201 kts | 44° |
| 2026-04-26 11:52 | 55.65350 | 109.40443 | 19386 ft | 201 kts | 44° |
| 2026-04-26 11:52 | 55.66016 | 109.41578 | 19369 ft | 202 kts | 44° |
| 2026-04-26 11:52 | 55.67363 | 109.43874 | 19380 ft | 202 kts | 44° |
| 2026-04-26 11:52 | 55.68370 | 109.45592 | 19365 ft | 202 kts | 44° |
| 2026-04-26 11:53 | 55.69375 | 109.47307 | 19376 ft | 202 kts | 44° |
| 2026-04-26 11:53 | 55.70381 | 109.49026 | 19379 ft | 202 kts | 44° |
| 2026-04-26 11:53 | 55.71399 | 109.50764 | 19358 ft | 203 kts | 44° |
| 2026-04-26 11:54 | 55.73412 | 109.54209 | 19373 ft | 202 kts | 44° |
| 2026-04-26 11:54 | 55.74422 | 109.55941 | 19365 ft | 202 kts | 44° |
| 2026-04-26 11:54 | 55.75434 | 109.57677 | 19400 ft | 202 kts | 44° |
| 2026-04-26 11:54 | 55.76442 | 109.59406 | 19348 ft | 204 kts | 44° |
| 2026-04-26 11:55 | 55.77465 | 109.61166 | 19317 ft | 205 kts | 44° |
| 2026-04-26 11:55 | 55.78466 | 109.62885 | 19411 ft | 201 kts | 44° |
| 2026-04-26 11:55 | 55.79472 | 109.64617 | 19358 ft | 204 kts | 44° |
| 2026-04-26 11:55 | 55.80508 | 109.66399 | 19287 ft | 206 kts | 45° |
| 2026-04-26 11:56 | 55.81519 | 109.68143 | 19373 ft | 203 kts | 45° |
| 2026-04-26 11:56 | 55.82532 | 109.69889 | 19348 ft | 204 kts | 45° |
| 2026-04-26 11:56 | 55.83551 | 109.71648 | 19279 ft | 206 kts | 45° |
| 2026-04-26 11:56 | 55.84580 | 109.73425 | 19340 ft | 203 kts | 45° |
| 2026-04-26 11:57 | 55.85589 | 109.75170 | 19358 ft | 203 kts | 45° |
| 2026-04-26 11:57 | 55.86610 | 109.76936 | 19253 ft | 208 kts | 45° |
| 2026-04-26 11:57 | 55.87632 | 109.78705 | 19275 ft | 206 kts | 45° |
| 2026-04-26 11:57 | 55.88657 | 109.80479 | 19322 ft | 203 kts | 45° |
| 2026-04-26 11:58 | 55.89654 | 109.82246 | 19246 ft | 207 kts | 47° |
| 2026-04-26 11:58 | 55.90638 | 109.84130 | 19236 ft | 207 kts | 48° |
| 2026-04-26 11:58 | 55.91595 | 109.86017 | 19322 ft | 203 kts | 48° |
| 2026-04-26 11:58 | 55.92527 | 109.87882 | 19284 ft | 204 kts | 48° |
| 2026-04-26 11:59 | 55.93482 | 109.89793 | 19239 ft | 206 kts | 48° |
| 2026-04-26 11:59 | 55.94421 | 109.91675 | 19315 ft | 202 kts | 48° |
| 2026-04-26 11:59 | 55.95345 | 109.93526 | 19308 ft | 203 kts | 48° |
| 2026-04-26 11:59 | 55.96300 | 109.95443 | 19222 ft | 206 kts | 49° |
| 2026-04-26 12:00 | 55.97238 | 109.97325 | 19271 ft | 203 kts | 49° |
| 2026-04-26 12:00 | 55.98170 | 109.99200 | 19303 ft | 202 kts | 49° |
| 2026-04-26 12:00 | 55.99111 | 110.01093 | 19214 ft | 206 kts | 49° |
| 2026-04-26 12:00 | 56.00068 | 110.03019 | 19228 ft | 205 kts | 49° |
| 2026-04-26 12:01 | 56.01003 | 110.04903 | 19321 ft | 201 kts | 49° |
| 2026-04-26 12:01 | 56.01924 | 110.06763 | 19260 ft | 205 kts | 49° |
| 2026-04-26 12:01 | 56.02875 | 110.08678 | 19230 ft | 206 kts | 49° |
| 2026-04-26 12:01 | 56.03814 | 110.10576 | 19322 ft | 202 kts | 49° |
| 2026-04-26 12:02 | 56.04752 | 110.12470 | 19288 ft | 204 kts | 49° |
| 2026-04-26 12:02 | 56.05701 | 110.14389 | 19209 ft | 207 kts | 49° |
| 2026-04-26 12:02 | 56.06640 | 110.16290 | 19301 ft | 203 kts | 49° |
| 2026-04-26 12:02 | 56.07576 | 110.18187 | 19326 ft | 203 kts | 49° |
| 2026-04-26 12:03 | 56.08505 | 110.20068 | 19253 ft | 206 kts | 49° |
| 2026-04-26 12:03 | 56.09450 | 110.21989 | 19295 ft | 204 kts | 49° |
| 2026-04-26 12:03 | 56.10382 | 110.23878 | 19356 ft | 202 kts | 49° |
| 2026-04-26 12:03 | 56.11328 | 110.25804 | 19269 ft | 207 kts | 49° |
| 2026-04-26 12:04 | 56.12280 | 110.27738 | 19256 ft | 208 kts | 49° |
| 2026-04-26 12:04 | 56.13222 | 110.29657 | 19337 ft | 205 kts | 49° |
| 2026-04-26 12:04 | 56.14171 | 110.31588 | 19276 ft | 208 kts | 49° |
| 2026-04-26 12:04 | 56.15129 | 110.33544 | 19221 ft | 210 kts | 49° |
| 2026-04-26 12:05 | 56.16082 | 110.35487 | 19307 ft | 206 kts | 49° |
| 2026-04-26 12:05 | 56.17029 | 110.37422 | 19285 ft | 208 kts | 49° |
| 2026-04-26 12:05 | 56.17995 | 110.39397 | 19214 ft | 211 kts | 49° |
| 2026-04-26 12:05 | 56.18945 | 110.41341 | 19283 ft | 208 kts | 49° |
| 2026-04-26 12:06 | 56.19896 | 110.43285 | 19298 ft | 208 kts | 49° |
| 2026-04-26 12:06 | 56.20855 | 110.45253 | 19208 ft | 212 kts | 49° |
| 2026-04-26 12:06 | 56.21831 | 110.47251 | 19252 ft | 209 kts | 49° |
| 2026-04-26 12:06 | 56.22771 | 110.49181 | 19307 ft | 207 kts | 49° |
| 2026-04-26 12:07 | 56.23737 | 110.51167 | 19195 ft | 212 kts | 49° |
| 2026-04-26 12:07 | 56.24694 | 110.53133 | 19207 ft | 211 kts | 49° |
| 2026-04-26 12:07 | 56.25654 | 110.55109 | 19279 ft | 208 kts | 49° |
| 2026-04-26 12:07 | 56.26614 | 110.57081 | 19195 ft | 212 kts | 49° |
| 2026-04-26 12:08 | 56.27579 | 110.59072 | 19187 ft | 212 kts | 49° |
| 2026-04-26 12:08 | 56.28539 | 110.61049 | 19268 ft | 208 kts | 49° |
| 2026-04-26 12:08 | 56.29490 | 110.63014 | 19212 ft | 211 kts | 49° |
| 2026-04-26 12:08 | 56.30463 | 110.65026 | 19159 ft | 213 kts | 50° |
| 2026-04-26 12:09 | 56.31424 | 110.67011 | 19248 ft | 209 kts | 50° |
| 2026-04-26 12:09 | 56.32377 | 110.68986 | 19225 ft | 211 kts | 50° |
| 2026-04-26 12:09 | 56.33345 | 110.70989 | 19152 ft | 214 kts | 50° |
| 2026-04-26 12:09 | 56.34318 | 110.73009 | 19231 ft | 211 kts | 50° |
| 2026-04-26 12:10 | 56.35277 | 110.74996 | 19251 ft | 210 kts | 50° |
| 2026-04-26 12:10 | 56.36241 | 110.77000 | 19150 ft | 215 kts | 50° |
| 2026-04-26 12:10 | 56.37206 | 110.79005 | 19190 ft | 212 kts | 50° |
| 2026-04-26 12:10 | 56.38175 | 110.81021 | 19245 ft | 210 kts | 50° |
| 2026-04-26 12:11 | 56.39137 | 110.83021 | 19181 ft | 213 kts | 50° |
| 2026-04-26 12:11 | 56.40100 | 110.85021 | 19158 ft | 214 kts | 50° |
| 2026-04-26 12:11 | 56.41075 | 110.87055 | 19240 ft | 210 kts | 50° |
| 2026-04-26 12:11 | 56.42017 | 110.89027 | 19235 ft | 211 kts | 50° |
| 2026-04-26 12:12 | 56.42989 | 110.91053 | 19157 ft | 215 kts | 50° |
| 2026-04-26 12:12 | 56.43962 | 110.93088 | 19235 ft | 211 kts | 50° |
| 2026-04-26 12:12 | 56.44913 | 110.95081 | 19285 ft | 210 kts | 50° |
| 2026-04-26 12:12 | 56.45554 | 110.96421 | 19238 ft | 213 kts | 50° |
| 2026-04-26 12:13 | 56.46843 | 110.99126 | 19238 ft | 213 kts | 50° |
| 2026-04-26 12:13 | 56.47808 | 111.01148 | 19327 ft | 210 kts | 50° |
| 2026-04-26 12:13 | 56.48753 | 111.03132 | 19268 ft | 213 kts | 50° |
| 2026-04-26 12:13 | 56.49721 | 111.05168 | 19241 ft | 215 kts | 50° |
| 2026-04-26 12:14 | 56.50686 | 111.07196 | 19339 ft | 210 kts | 50° |
| 2026-04-26 12:14 | 56.51648 | 111.09222 | 19309 ft | 213 kts | 50° |
| 2026-04-26 12:14 | 56.52605 | 111.11242 | 19254 ft | 215 kts | 50° |
| 2026-04-26 12:14 | 56.53582 | 111.13300 | 19322 ft | 212 kts | 50° |
| 2026-04-26 12:15 | 56.54538 | 111.15318 | 19348 ft | 212 kts | 50° |
| 2026-04-26 12:15 | 56.55500 | 111.17355 | 19257 ft | 217 kts | 50° |
| 2026-04-26 12:15 | 56.56472 | 111.19408 | 19300 ft | 214 kts | 50° |
| 2026-04-26 12:15 | 56.57444 | 111.21465 | 19363 ft | 212 kts | 50° |
| 2026-04-26 12:16 | 56.58399 | 111.23489 | 19280 ft | 216 kts | 50° |
| 2026-04-26 12:16 | 56.59378 | 111.25567 | 19290 ft | 216 kts | 50° |
| 2026-04-26 12:16 | 56.60351 | 111.27628 | 19360 ft | 213 kts | 50° |
| 2026-04-26 12:16 | 56.61314 | 111.29672 | 19294 ft | 216 kts | 50° |
| 2026-04-26 12:17 | 56.62290 | 111.31749 | 19253 ft | 218 kts | 50° |
| 2026-04-26 12:17 | 56.63261 | 111.33812 | 19337 ft | 214 kts | 50° |
| 2026-04-26 12:17 | 56.64236 | 111.35885 | 19296 ft | 217 kts | 50° |
| 2026-04-26 12:17 | 56.65219 | 111.37982 | 19224 ft | 220 kts | 50° |
| 2026-04-26 12:18 | 56.66199 | 111.40075 | 19295 ft | 216 kts | 50° |
| 2026-04-26 12:18 | 56.67162 | 111.42129 | 19305 ft | 216 kts | 50° |
| 2026-04-26 12:18 | 56.68144 | 111.44226 | 19222 ft | 220 kts | 50° |
| 2026-04-26 12:18 | 56.69122 | 111.46313 | 19282 ft | 217 kts | 50° |
| 2026-04-26 12:19 | 56.70089 | 111.48385 | 19335 ft | 215 kts | 50° |
| 2026-04-26 12:19 | 56.71060 | 111.50468 | 19242 ft | 219 kts | 50° |
| 2026-04-26 12:19 | 56.72045 | 111.52581 | 19267 ft | 218 kts | 50° |
| 2026-04-26 12:19 | 56.73013 | 111.54655 | 19345 ft | 215 kts | 50° |
| 2026-04-26 12:20 | 56.73993 | 111.56761 | 19265 ft | 218 kts | 50° |
| 2026-04-26 12:20 | 56.74972 | 111.58866 | 19271 ft | 218 kts | 50° |
| 2026-04-26 12:20 | 56.75940 | 111.60947 | 19350 ft | 215 kts | 50° |
| 2026-04-26 12:20 | 56.76907 | 111.63030 | 19288 ft | 218 kts | 50° |
| 2026-04-26 12:21 | 56.77885 | 111.65136 | 19254 ft | 219 kts | 50° |
| 2026-04-26 12:21 | 56.78857 | 111.67235 | 19348 ft | 216 kts | 50° |
| 2026-04-26 12:21 | 56.79833 | 111.69340 | 19315 ft | 218 kts | 50° |
| 2026-04-26 12:21 | 56.80814 | 111.71461 | 19241 ft | 221 kts | 51° |
| 2026-04-26 12:22 | 56.81799 | 111.73590 | 19312 ft | 218 kts | 51° |
| 2026-04-26 12:22 | 56.82764 | 111.75681 | 19323 ft | 218 kts | 50° |
| 2026-04-26 12:22 | 56.83746 | 111.77807 | 19264 ft | 221 kts | 50° |
| 2026-04-26 12:22 | 56.84730 | 111.79944 | 19302 ft | 219 kts | 50° |
| 2026-04-26 12:23 | 56.85710 | 111.82068 | 19368 ft | 217 kts | 50° |
| 2026-04-26 12:23 | 56.86688 | 111.84193 | 19280 ft | 221 kts | 50° |
| 2026-04-26 12:23 | 56.87667 | 111.86322 | 19282 ft | 221 kts | 50° |
| 2026-04-26 12:23 | 56.88655 | 111.88467 | 19362 ft | 217 kts | 50° |
| 2026-04-26 12:24 | 56.89626 | 111.90583 | 19305 ft | 220 kts | 51° |
| 2026-04-26 12:24 | 56.90608 | 111.92725 | 19277 ft | 221 kts | 51° |
| 2026-04-26 12:24 | 56.91580 | 111.94843 | 19378 ft | 217 kts | 50° |
| 2026-04-26 12:25 | 56.93537 | 111.99121 | 19261 ft | 223 kts | 51° |
| 2026-04-26 12:25 | 56.94528 | 112.01287 | 19348 ft | 219 kts | 50° |
| 2026-04-26 12:25 | 56.95491 | 112.03397 | 19368 ft | 219 kts | 50° |
| 2026-04-26 12:25 | 56.96468 | 112.05536 | 19354 ft | 221 kts | 50° |
| 2026-04-26 12:26 | 56.97454 | 112.07700 | 19341 ft | 222 kts | 50° |
| 2026-04-26 12:26 | 56.98441 | 112.09864 | 19339 ft | 222 kts | 50° |
| 2026-04-26 12:26 | 56.99438 | 112.12054 | 19325 ft | 223 kts | 50° |
| 2026-04-26 12:26 | 57.00428 | 112.14230 | 19339 ft | 222 kts | 50° |
| 2026-04-26 12:27 | 57.01416 | 112.16405 | 19313 ft | 223 kts | 50° |
| 2026-04-26 12:27 | 57.02395 | 112.18561 | 19319 ft | 223 kts | 50° |
| 2026-04-26 12:27 | 57.03394 | 112.20763 | 19308 ft | 223 kts | 50° |
| 2026-04-26 12:27 | 57.04371 | 112.22922 | 19304 ft | 223 kts | 50° |
| 2026-04-26 12:28 | 57.05366 | 112.25116 | 19318 ft | 223 kts | 50° |
| 2026-04-26 12:28 | 57.06354 | 112.27303 | 19290 ft | 224 kts | 50° |
| 2026-04-26 12:28 | 57.07345 | 112.29494 | 19299 ft | 224 kts | 50° |
| 2026-04-26 12:28 | 57.08336 | 112.31690 | 19276 ft | 225 kts | 50° |
| 2026-04-26 12:29 | 57.09343 | 112.33921 | 19283 ft | 224 kts | 50° |
| 2026-04-26 12:29 | 57.10334 | 112.36121 | 19273 ft | 225 kts | 50° |
| 2026-04-26 12:29 | 57.12327 | 112.40543 | 19267 ft | 225 kts | 50° |
| 2026-04-26 12:30 | 57.13332 | 112.42782 | 19243 ft | 226 kts | 50° |
| 2026-04-26 12:30 | 57.14324 | 112.44987 | 19246 ft | 225 kts | 50° |
| 2026-04-26 12:30 | 57.15315 | 112.47197 | 19242 ft | 225 kts | 50° |
| 2026-04-26 12:31 | 57.17290 | 112.51678 | 19225 ft | 226 kts | 50° |
| 2026-04-26 12:31 | 57.18254 | 112.53962 | 19250 ft | 225 kts | 51° |
| 2026-04-26 12:31 | 57.19201 | 112.56245 | 19233 ft | 225 kts | 52° |
| 2026-04-26 12:31 | 57.20120 | 112.58523 | 19262 ft | 224 kts | 52° |
| 2026-04-26 12:32 | 57.21051 | 112.60828 | 19283 ft | 224 kts | 52° |
| 2026-04-26 12:32 | 57.21986 | 112.63153 | 19270 ft | 225 kts | 52° |
| 2026-04-26 12:32 | 57.23832 | 112.67746 | 19275 ft | 225 kts | 53° |
| 2026-04-26 12:33 | 57.24765 | 112.70068 | 19286 ft | 225 kts | 53° |
| 2026-04-26 12:33 | 57.25698 | 112.72393 | 19311 ft | 224 kts | 53° |
| 2026-04-26 12:33 | 57.26623 | 112.74700 | 19293 ft | 225 kts | 53° |
| 2026-04-26 12:33 | 57.27543 | 112.76994 | 19304 ft | 225 kts | 53° |
| 2026-04-26 12:34 | 57.28476 | 112.79329 | 19307 ft | 225 kts | 53° |
| 2026-04-26 12:34 | 57.29401 | 112.81645 | 19321 ft | 225 kts | 53° |
| 2026-04-26 12:34 | 57.30322 | 112.83952 | 19308 ft | 226 kts | 53° |
| 2026-04-26 12:34 | 57.31253 | 112.86282 | 19299 ft | 226 kts | 53° |
| 2026-04-26 12:35 | 57.32189 | 112.88633 | 19303 ft | 226 kts | 53° |
| 2026-04-26 12:35 | 57.33133 | 112.90962 | 19307 ft | 226 kts | 52° |
| 2026-04-26 12:35 | 57.34039 | 112.93282 | 19210 ft | 217 kts | 54° |
| 2026-04-26 12:35 | 57.34901 | 112.95530 | 18786 ft | 218 kts | 53° |
| 2026-04-26 12:36 | 57.35809 | 112.97796 | 18393 ft | 217 kts | 52° |
| 2026-04-26 12:36 | 57.36702 | 112.99981 | 18063 ft | 214 kts | 52° |
| 2026-04-26 12:36 | 57.37600 | 113.02182 | 17712 ft | 212 kts | 52° |
| 2026-04-26 12:36 | 57.38459 | 113.04363 | 17317 ft | 212 kts | 53° |
| 2026-04-26 12:37 | 57.39320 | 113.06583 | 16927 ft | 212 kts | 52° |
| 2026-04-26 12:37 | 57.40198 | 113.08715 | 16598 ft | 209 kts | 52° |
| 2026-04-26 12:37 | 57.41053 | 113.10858 | 16252 ft | 207 kts | 53° |
| 2026-04-26 12:37 | 57.41889 | 113.13023 | 15871 ft | 207 kts | 53° |
| 2026-04-26 12:38 | 57.42746 | 113.15152 | 15499 ft | 206 kts | 52° |
| 2026-04-26 12:38 | 57.43610 | 113.17260 | 15141 ft | 205 kts | 52° |
| 2026-04-26 12:38 | 57.44457 | 113.19355 | 14811 ft | 202 kts | 53° |
| 2026-04-26 12:38 | 57.45286 | 113.21455 | 14448 ft | 202 kts | 54° |
| 2026-04-26 12:39 | 57.46098 | 113.23535 | 14082 ft | 201 kts | 54° |
| 2026-04-26 12:39 | 57.46889 | 113.25655 | 13763 ft | 199 kts | 56° |
| 2026-04-26 12:39 | 57.47649 | 113.27781 | 13416 ft | 198 kts | 56° |
| 2026-04-26 12:39 | 57.48406 | 113.29887 | 13063 ft | 197 kts | 56° |
| 2026-04-26 12:40 | 57.49182 | 113.31987 | 12738 ft | 195 kts | 53° |
| 2026-04-26 12:40 | 57.50029 | 113.33933 | 12390 ft | 194 kts | 47° |
| 2026-04-26 12:40 | 57.50991 | 113.35677 | 12008 ft | 195 kts | 42° |
| 2026-04-26 12:40 | 57.51918 | 113.37476 | 11690 ft | 193 kts | 49° |
| 2026-04-26 12:41 | 57.52721 | 113.39453 | 11356 ft | 192 kts | 53° |
| 2026-04-26 12:41 | 57.53501 | 113.41464 | 11083 ft | 193 kts | 54° |
| 2026-04-26 12:41 | 57.54242 | 113.43481 | 11292 ft | 185 kts | 54° |
| 2026-04-26 12:41 | 57.54992 | 113.45379 | 11412 ft | 182 kts | 52° |
| 2026-04-26 12:42 | 57.55741 | 113.47313 | 11446 ft | 185 kts | 53° |
| 2026-04-26 12:42 | 57.56493 | 113.49210 | 11575 ft | 184 kts | 52° |
| 2026-04-26 12:42 | 57.57268 | 113.51158 | 11614 ft | 187 kts | 53° |
| 2026-04-26 12:42 | 57.58006 | 113.53144 | 11695 ft | 187 kts | 54° |
| 2026-04-26 12:43 | 57.58769 | 113.55112 | 11741 ft | 190 kts | 53° |
| 2026-04-26 12:43 | 57.59542 | 113.57093 | 11729 ft | 182 kts | 53° |
| 2026-04-26 12:43 | 57.60286 | 113.59019 | 11257 ft | 191 kts | 54° |
| 2026-04-26 12:43 | 57.61064 | 113.61030 | 10864 ft | 192 kts | 54° |
| 2026-04-26 12:44 | 57.61793 | 113.63058 | 10617 ft | 187 kts | 56° |
| 2026-04-26 12:44 | 57.62523 | 113.65083 | 10211 ft | 190 kts | 55° |
| 2026-04-26 12:44 | 57.63280 | 113.67070 | 9928 ft | 186 kts | 54° |
| 2026-04-26 12:44 | 57.64042 | 113.68999 | 9589 ft | 186 kts | 52° |
| 2026-04-26 12:45 | 57.64808 | 113.70931 | 9223 ft | 187 kts | 53° |
| 2026-04-26 12:45 | 57.65568 | 113.72900 | 8931 ft | 184 kts | 54° |
| 2026-04-26 12:45 | 57.66291 | 113.74824 | 8619 ft | 183 kts | 54° |
| 2026-04-26 12:45 | 57.67017 | 113.76777 | 8281 ft | 183 kts | 55° |
| 2026-04-26 12:46 | 57.67728 | 113.78709 | 7953 ft | 182 kts | 54° |
| 2026-04-26 12:46 | 57.68453 | 113.80633 | 7634 ft | 181 kts | 54° |
| 2026-04-26 12:46 | 57.69192 | 113.82546 | 7323 ft | 180 kts | 53° |
| 2026-04-26 12:46 | 57.69933 | 113.84405 | 7001 ft | 179 kts | 53° |
| 2026-04-26 12:47 | 57.70660 | 113.86249 | 6701 ft | 178 kts | 53° |
| 2026-04-26 12:47 | 57.71375 | 113.88128 | 6387 ft | 177 kts | 54° |
| 2026-04-26 12:47 | 57.72078 | 113.90044 | 6036 ft | 178 kts | 55° |
| 2026-04-26 12:47 | 57.72789 | 113.91917 | 5725 ft | 177 kts | 53° |
| 2026-04-26 12:48 | 57.73513 | 113.93748 | 5417 ft | 177 kts | 53° |
| 2026-04-26 12:48 | 57.74252 | 113.95606 | 5070 ft | 178 kts | 52° |
| 2026-04-26 12:48 | 57.74979 | 113.97439 | 4751 ft | 178 kts | 52° |
| 2026-04-26 12:48 | 57.75708 | 113.99316 | 4436 ft | 177 kts | 54° |
| 2026-04-26 12:49 | 57.76420 | 114.01176 | 4109 ft | 177 kts | 53° |
| 2026-04-26 12:49 | 57.77120 | 114.03076 | 3802 ft | 176 kts | 55° |
| 2026-04-26 12:49 | 57.77758 | 114.04915 | 3691 ft | 165 kts | 56° |
| 2026-04-26 12:49 | 57.78351 | 114.06763 | 3514 ft | 164 kts | 58° |
| 2026-04-26 12:50 | 57.78942 | 114.08565 | 3523 ft | 162 kts | 53° |
| 2026-04-26 12:50 | 57.79644 | 114.10168 | 3599 ft | 157 kts | 46° |
| 2026-04-26 12:50 | 57.80331 | 114.11813 | 3592 ft | 162 kts | 52° |
| 2026-04-26 12:50 | 57.80971 | 114.13564 | 3529 ft | 165 kts | 60° |
| 2026-04-26 12:51 | 57.81525 | 114.15479 | 3449 ft | 168 kts | 63° |
| 2026-04-26 12:51 | 57.81960 | 114.17471 | 3495 ft | 164 kts | 70° |
| 2026-04-26 12:51 | 57.82289 | 114.19527 | 3404 ft | 168 kts | 71° |
| 2026-04-26 12:51 | 57.82672 | 114.21603 | 3311 ft | 169 kts | 72° |
| 2026-04-26 12:52 | 57.82939 | 114.23654 | 3430 ft | 150 kts | 76° |
| 2026-04-26 12:52 | 57.83125 | 114.25499 | 3283 ft | 139 kts | 78° |
| 2026-04-26 12:52 | 57.83297 | 114.27265 | 3011 ft | 136 kts | 76° |
| 2026-04-26 12:52 | 57.83521 | 114.28954 | 2873 ft | 135 kts | 72° |
| 2026-04-26 12:53 | 57.83882 | 114.30550 | 2875 ft | 131 kts | 53° |
| 2026-04-26 12:53 | 57.84464 | 114.31835 | 2957 ft | 125 kts | 48° |
| 2026-04-26 12:53 | 57.84998 | 114.33053 | 3055 ft | 120 kts | 50° |
| 2026-04-26 12:53 | 57.85598 | 114.34111 | 3080 ft | 120 kts | 24° |
| 2026-04-26 12:54 | 57.86407 | 114.34235 | 3060 ft | 120 kts | 346° |
| 2026-04-26 12:54 | 57.87120 | 114.33383 | 2884 ft | 124 kts | 310° |
| 2026-04-26 12:54 | 57.87509 | 114.31931 | 2665 ft | 126 kts | 291° |
| 2026-04-26 12:54 | 57.87825 | 114.30396 | 2380 ft | 125 kts | 290° |
| 2026-04-26 12:55 | 57.87940 | 114.28803 | 2097 ft | 126 kts | 268° |
| 2026-04-26 12:55 | 57.87714 | 114.27212 | 1755 ft | 129 kts | 244° |
| 2026-04-26 12:55 | 57.87238 | 114.25825 | 1474 ft | 127 kts | 234° |
| 2026-04-26 12:55 | 57.86706 | 114.24481 | 1280 ft | 129 kts | 233° |
| 2026-04-26 12:56 | 57.86212 | 114.23174 | 1603 ft | 120 kts | 235° |
| 2026-04-26 12:56 | 57.85527 | 114.22372 | 1798 ft | 122 kts | 189° |
| 2026-04-26 12:56 | 57.84718 | 114.22661 | 2038 ft | 118 kts | 150° |
| 2026-04-26 12:56 | 57.84170 | 114.23730 | 2267 ft | 117 kts | 116° |
| 2026-04-26 12:57 | 57.84065 | 114.25234 | 2425 ft | 118 kts | 75° |
| 2026-04-26 12:57 | 57.84365 | 114.26692 | 2580 ft | 122 kts | 67° |
| 2026-04-26 12:57 | 57.84666 | 114.28233 | 2693 ft | 126 kts | 62° |
| 2026-04-26 12:58 | 57.85606 | 114.31018 | 2941 ft | 126 kts | 56° |
| 2026-04-26 12:58 | 57.86040 | 114.32446 | 2905 ft | 124 kts | 58° |
| 2026-04-26 12:58 | 57.86585 | 114.33682 | 2687 ft | 124 kts | 32° |
| 2026-04-26 12:58 | 57.87404 | 114.33971 | 2405 ft | 125 kts | 348° |
| 2026-04-26 12:59 | 57.88120 | 114.33088 | 2107 ft | 128 kts | 308° |
| 2026-04-26 12:59 | 57.88409 | 114.31529 | 1842 ft | 129 kts | 273° |
| 2026-04-26 12:59 | 57.88319 | 114.29861 | 1584 ft | 130 kts | 263° |
| 2026-04-26 12:59 | 57.88141 | 114.28240 | 1389 ft | 126 kts | 251° |
| 2026-04-26 13:00 | 57.87667 | 114.26876 | 1218 ft | 125 kts | 227° |
| 2026-04-26 13:00 | 57.87128 | 114.25630 | 1003 ft | 125 kts | 231° |
| 2026-04-26 13:00 | 57.86624 | 114.24351 | 896 ft | 112 kts | 233° |
| 2026-04-26 13:00 | 57.86258 | 114.23405 | 893 ft | 64 kts | 238° |
| 2026-04-26 13:01 | 57.86142 | 114.23103 | 894 ft | 25 kts | 232° |